Time;durP1;ratioP1;P1;durP2;ratioP2;P2;SDS_P1;SDS_P2;PMS_P1;PMS_P2;Temp;Humidity;BMP_temperature;BMP_pressure;BME280_temperature;BME280_humidity;BME280_pressure;Samples;Min_cycle;Max_cycle;Signal;HPM_P1;HPM_P2
2020/12/29 00:01:58;;;;;;;0.93;0.80;;;;;;;6.78;67.43;96072.06;1708431;83;21381;-65
2020/12/29 00:04:27;;;;;;;2.02;1.20;;;;;;;6.75;67.57;96092.23;1715955;83;21744;-68
2020/12/29 00:06:57;;;;;;;2.22;1.00;;;;;;;6.79;67.46;96096.90;1716004;82;21156;-64
2020/12/29 00:09:27;;;;;;;0.90;0.78;;;;;;;6.81;67.48;96109.65;1716152;83;21306;-66
2020/12/29 00:11:57;;;;;;;1.60;0.80;;;;;;;6.80;67.51;96110.12;1716290;83;21350;-66
2020/12/29 00:14:25;;;;;;;2.92;1.45;;;;;;;6.78;67.50;96104.31;1716141;82;21311;-66
2020/12/29 00:16:53;;;;;;;2.60;1.02;;;;;;;6.78;67.67;96096.58;1716079;83;21136;-64
2020/12/29 00:19:23;;;;;;;2.75;1.10;;;;;;;6.76;67.56;96085.63;1716353;82;21278;-63
2020/12/29 00:21:51;;;;;;;1.12;0.68;;;;;;;6.73;67.62;96092.38;1715968;82;21200;-66
2020/12/29 00:24:19;;;;;;;1.27;1.05;;;;;;;6.73;67.44;96083.86;1715935;82;21154;-63
2020/12/29 00:26:49;;;;;;;1.55;1.10;;;;;;;6.68;67.67;96081.77;1713569;82;21596;-63
2020/12/29 00:29:17;;;;;;;1.55;0.90;;;;;;;6.68;67.36;96077.91;1716084;83;21314;-63
2020/12/29 00:31:45;;;;;;;3.05;0.93;;;;;;;6.65;67.44;96088.55;1716024;83;21169;-64
2020/12/29 00:34:14;;;;;;;1.30;0.90;;;;;;;6.64;67.26;96074.04;1716163;82;21766;-66
2020/12/29 00:36:42;;;;;;;1.15;0.90;;;;;;;6.60;67.39;96068.41;1716280;82;21747;-66
2020/12/29 00:39:10;;;;;;;0.75;0.72;;;;;;;6.57;67.47;96055.04;1715946;83;21604;-65
2020/12/29 00:41:39;;;;;;;1.55;1.22;;;;;;;6.57;67.51;96055.84;1716223;83;21306;-66
2020/12/29 00:44:06;;;;;;;2.20;0.90;;;;;;;6.58;67.50;96070.33;1716251;83;21286;-65
2020/12/29 00:46:34;;;;;;;1.30;0.90;;;;;;;6.57;67.52;96075.67;1716362;83;21541;-63
2020/12/29 00:49:02;;;;;;;1.40;1.07;;;;;;;6.55;67.55;96093.06;1716196;83;21333;-64
2020/12/29 00:51:31;;;;;;;1.40;0.80;;;;;;;6.53;67.65;96100.98;1716122;83;21710;-64
2020/12/29 00:54:02;;;;;;;1.57;1.00;;;;;;;6.55;67.48;96094.35;1716054;82;21156;-63
2020/12/29 00:56:31;;;;;;;2.20;1.52;;;;;;;6.52;67.58;96084.37;1689724;83;21207;-63
2020/12/29 00:58:59;;;;;;;1.55;0.93;;;;;;;6.50;67.59;96083.23;1716128;82;21302;-66
2020/12/29 01:01:29;;;;;;;1.17;0.80;;;;;;;6.48;67.82;96075.34;1716182;82;21541;-64
2020/12/29 01:04:15;;;;;;;1.75;0.85;;;;;;;6.44;67.97;96089.53;1716385;83;21703;-64
2020/12/29 01:06:44;;;;;;;0.65;0.60;;;;;;;6.42;67.81;96090.20;1716380;83;21295;-68
2020/12/29 01:09:13;;;;;;;1.15;0.88;;;;;;;6.40;67.87;96071.48;1715701;82;21636;-65
2020/12/29 01:11:42;;;;;;;1.05;0.88;;;;;;;6.38;68.00;96063.91;1716447;83;21723;-64
2020/12/29 01:14:11;;;;;;;1.60;0.90;;;;;;;6.35;68.04;96055.21;1716209;83;21318;-64
2020/12/29 01:16:51;;;;;;;1.30;1.00;;;;;;;6.37;68.06;96053.77;1819430;78;22763;-65
2020/12/29 01:19:19;;;;;;;1.12;1.02;;;;;;;6.28;68.04;96054.26;1792940;80;21297;-64
2020/12/29 01:21:52;;;;;;;3.33;0.82;;;;;;;6.19;68.47;96055.22;1793097;80;21331;-65
2020/12/29 01:24:20;;;;;;;1.22;1.00;;;;;;;6.15;68.69;96060.37;1792999;80;21317;-66
2020/12/29 01:26:48;;;;;;;1.42;0.90;;;;;;;6.10;69.01;96068.61;1792803;80;21353;-65
2020/12/29 01:29:17;;;;;;;1.00;0.95;;;;;;;6.07;69.20;96062.98;1792953;80;21765;-65
2020/12/29 01:31:45;;;;;;;0.82;0.72;;;;;;;6.01;69.51;96052.81;1793045;80;21285;-65
2020/12/29 01:34:13;;;;;;;0.72;0.72;;;;;;;5.99;69.72;96049.58;1792998;80;21258;-65
2020/12/29 01:36:41;;;;;;;1.25;0.98;;;;;;;5.94;70.03;96049.28;1792976;80;21301;-65
2020/12/29 01:39:09;;;;;;;0.90;0.88;;;;;;;5.93;70.02;96057.97;1793043;80;21666;-66
2020/12/29 01:41:38;;;;;;;0.85;0.82;;;;;;;5.93;70.28;96060.55;1792797;80;21333;-66
2020/12/29 01:44:20;;;;;;;0.65;0.53;;;;;;;5.91;70.26;96050.89;1792804;80;21334;-65
2020/12/29 01:46:52;;;;;;;1.10;0.72;;;;;;;5.92;70.51;96050.38;1792635;80;21278;-65
2020/12/29 01:49:20;;;;;;;2.30;0.65;;;;;;;5.94;70.57;96054.91;1792645;80;21196;-67
2020/12/29 01:51:48;;;;;;;2.45;0.68;;;;;;;5.93;70.68;96052.00;1792979;80;21293;-67
2020/12/29 01:54:16;;;;;;;1.65;1.00;;;;;;;5.93;70.84;96044.27;1792733;80;21686;-67
2020/12/29 01:56:44;;;;;;;2.25;1.52;;;;;;;5.88;71.21;96033.63;1792813;80;21140;-67
2020/12/29 01:59:13;;;;;;;1.32;0.98;;;;;;;5.87;71.28;96016.11;1792967;80;21318;-67
2020/12/29 02:01:44;;;;;;;1.20;0.80;;;;;;;5.86;71.23;96022.67;1793003;80;21698;-65
2020/12/29 02:04:15;;;;;;;1.47;0.90;;;;;;;5.90;71.09;96022.23;1793127;80;21306;-71
2020/12/29 02:06:44;;;;;;;1.12;0.53;;;;;;;5.87;71.28;96008.39;1792754;80;21333;-65
2020/12/29 02:09:13;;;;;;;1.20;0.90;;;;;;;5.87;71.28;96018.69;1792661;80;21719;-66
2020/12/29 02:11:41;;;;;;;1.00;0.57;;;;;;;5.85;71.37;96015.90;1792900;80;21282;-66
2020/12/29 02:14:09;;;;;;;1.55;0.82;;;;;;;5.84;71.39;96010.42;1792945;80;21298;-66
2020/12/29 02:16:40;;;;;;;0.40;0.40;;;;;;;5.81;71.56;96008.98;1786515;80;21663;-66
2020/12/29 02:19:09;;;;;;;1.82;1.15;;;;;;;5.79;71.51;95999.81;1785181;80;21528;-66
2020/12/29 02:21:40;;;;;;;1.55;1.12;;;;;;;5.79;71.40;96007.55;1784969;80;21239;-66
2020/12/29 02:24:08;;;;;;;2.37;0.95;;;;;;;5.70;72.09;96011.39;1784907;80;21609;-67
2020/12/29 02:26:36;;;;;;;0.75;0.57;;;;;;;5.70;72.04;95999.81;1784957;80;21554;-66
2020/12/29 02:29:06;;;;;;;0.82;0.82;;;;;;;5.69;71.86;96007.20;1784503;80;21148;-67
2020/12/29 02:31:34;;;;;;;1.62;1.22;;;;;;;5.71;71.93;96012.20;1784308;80;21274;-66
2020/12/29 02:34:02;;;;;;;1.60;1.00;;;;;;;5.65;72.53;96017.98;1784408;80;21639;-67
2020/12/29 02:36:30;;;;;;;2.40;1.45;;;;;;;5.64;72.61;96008.16;1784624;80;21208;-66
2020/12/29 02:38:58;;;;;;;2.08;1.00;;;;;;;5.60;72.74;96000.94;1784738;80;21164;-64
2020/12/29 02:41:26;;;;;;;1.95;1.15;;;;;;;5.54;73.02;95998.50;1784679;80;21161;-67
2020/12/29 02:43:54;;;;;;;1.92;1.17;;;;;;;5.51;73.31;96006.55;1784862;80;21172;-64
2020/12/29 02:46:22;;;;;;;1.90;1.15;;;;;;;5.48;73.66;96003.48;1784862;80;21175;-64
2020/12/29 02:48:50;;;;;;;2.72;1.42;;;;;;;5.47;73.47;95989.81;1784310;80;21298;-64
2020/12/29 02:51:18;;;;;;;2.55;1.42;;;;;;;5.45;74.22;96008.94;1784780;80;21195;-65
2020/12/29 02:53:46;;;;;;;2.98;1.42;;;;;;;5.45;73.95;96017.47;1784834;80;21136;-64
2020/12/29 02:56:20;;;;;;;1.65;0.82;;;;;;;5.47;73.55;96007.83;1784396;80;21136;-63
2020/12/29 02:58:48;;;;;;;3.75;1.30;;;;;;;5.47;73.35;95978.23;1784255;80;21169;-64
2020/12/29 03:01:16;;;;;;;2.80;1.12;;;;;;;5.46;73.47;95962.92;1784385;80;21112;-64
2020/12/29 03:03:44;;;;;;;1.85;0.95;;;;;;;5.38;74.74;95988.17;1784427;80;21124;-63
2020/12/29 03:06:12;;;;;;;2.55;1.25;;;;;;;5.37;74.62;95983.98;1784557;80;21146;-63
2020/12/29 03:08:40;;;;;;;1.82;1.07;;;;;;;5.31;74.92;95992.35;1784444;80;21172;-65
2020/12/29 03:11:08;;;;;;;3.00;1.40;;;;;;;5.32;74.27;96006.03;1784312;80;21207;-67
2020/12/29 03:13:37;;;;;;;2.02;1.02;;;;;;;5.31;74.09;96008.27;1784389;80;21192;-65
2020/12/29 03:16:04;;;;;;;1.92;1.20;;;;;;;5.29;74.23;95993.48;1782006;80;21152;-66
2020/12/29 03:18:34;;;;;;;2.40;1.22;;;;;;;5.30;75.20;95996.36;1779092;81;21579;-66
2020/12/29 03:21:03;;;;;;;7.67;1.07;;;;;;;5.33;75.17;95995.56;1779011;81;21160;-64
2020/12/29 03:23:31;;;;;;;1.67;1.25;;;;;;;5.36;75.23;95996.55;1778911;81;21188;-65
2020/12/29 03:25:59;;;;;;;1.50;1.25;;;;;;;5.37;75.11;95983.98;1778826;81;21196;-66
2020/12/29 03:28:27;;;;;;;1.12;1.00;;;;;;;5.39;75.22;95982.08;1778800;81;21168;-66
2020/12/29 03:30:55;;;;;;;2.05;1.17;;;;;;;5.43;75.09;95976.13;1778894;81;21164;-66
2020/12/29 03:33:23;;;;;;;4.58;1.20;;;;;;;5.44;75.02;95977.74;1778646;81;21537;-67
2020/12/29 03:35:52;;;;;;;1.72;0.98;;;;;;;5.46;74.86;95968.08;1778681;81;21160;-64
2020/12/29 03:38:22;;;;;;;1.90;1.15;;;;;;;5.46;74.39;95960.36;1778422;81;21192;-67
2020/12/29 03:40:51;;;;;;;2.70;1.52;;;;;;;5.49;74.61;95957.45;1778382;81;21290;-67
2020/12/29 03:43:21;;;;;;;1.67;1.05;;;;;;;5.56;74.38;95957.94;1778450;81;21297;-67
2020/12/29 03:45:51;;;;;;;1.65;1.12;;;;;;;5.62;74.09;95961.17;1778728;81;21187;-67
2020/12/29 03:51:02;;;;;;;1.27;1.02;;;;;;;5.74;73.33;95964.23;1776539;81;21149;-67
2020/12/29 03:53:30;;;;;;;2.60;1.00;;;;;;;5.78;73.33;95965.52;1777636;80;21196;-67
2020/12/29 03:55:58;;;;;;;1.22;1.05;;;;;;;5.84;73.18;95967.44;1777106;81;21578;-65
2020/12/29 03:58:26;;;;;;;1.92;1.50;;;;;;;5.88;72.93;95943.48;1777154;81;21694;-64
2020/12/29 04:00:54;;;;;;;1.17;1.02;;;;;;;5.92;72.92;95948.63;1777050;81;21156;-65
2020/12/29 04:03:22;;;;;;;10.72;1.47;;;;;;;5.96;72.68;95968.75;1777206;81;21219;-65
2020/12/29 04:05:50;;;;;;;1.55;1.20;;;;;;;6.03;72.31;95970.22;1777052;80;21474;-65
2020/12/29 04:08:18;;;;;;;1.72;1.10;;;;;;;6.05;72.38;95975.52;1777531;81;21583;-66
2020/12/29 04:10:47;;;;;;;1.90;0.88;;;;;;;6.10;71.56;95978.42;1777364;81;21152;-64
2020/12/29 04:13:15;;;;;;;1.00;0.90;;;;;;;6.59;68.06;95991.19;1777572;81;21143;-64
2020/12/29 04:15:44;;;;;;;1.52;0.98;;;;;;;6.98;67.64;95979.59;1777207;80;21211;-64
2020/12/29 04:18:12;;;;;;;1.02;0.80;;;;;;;7.03;68.15;95982.00;1777083;81;21326;-65
2020/12/29 04:20:40;;;;;;;0.57;0.57;;;;;;;7.21;68.61;95977.86;1777059;80;21318;-65
2020/12/29 04:23:08;;;;;;;0.65;0.45;;;;;;;7.65;65.69;95958.70;1777333;81;21156;-65
2020/12/29 04:25:36;;;;;;;1.20;0.75;;;;;;;7.70;65.89;95969.33;1777218;81;21172;-65
2020/12/29 04:28:04;;;;;;;1.22;0.75;;;;;;;7.96;65.22;95959.41;1777152;81;21600;-65
2020/12/29 04:30:32;;;;;;;1.37;0.90;;;;;;;8.18;64.72;95973.27;1777203;81;21156;-66
2020/12/29 04:33:00;;;;;;;0.75;0.75;;;;;;;8.35;64.19;95973.95;1777162;80;21604;-64
2020/12/29 04:35:28;;;;;;;2.05;0.60;;;;;;;8.42;64.59;95976.13;1777317;81;21544;-64
2020/12/29 04:37:57;;;;;;;0.80;0.70;;;;;;;8.45;64.38;95971.41;1777311;81;21168;-64
2020/12/29 04:40:25;;;;;;;0.88;0.70;;;;;;;8.50;63.58;95981.23;1777302;81;21152;-64
2020/12/29 04:42:53;;;;;;;0.53;0.50;;;;;;;8.51;64.00;95994.00;1777152;81;21580;-65
2020/12/29 04:45:22;;;;;;;1.37;0.75;;;;;;;8.51;64.39;96003.05;1777442;81;21207;-65
2020/12/29 04:47:52;;;;;;;0.78;0.50;;;;;;;8.50;64.40;96015.66;1777214;81;21148;-65
2020/12/29 04:50:21;;;;;;;5.92;0.80;;;;;;;8.72;62.42;96036.45;1780540;80;21147;-63
2020/12/29 04:52:55;;;;;;;0.33;0.33;;;;;;;8.98;60.60;96027.28;1783115;80;21164;-64
2020/12/29 04:58:09;;;;;;;0.77;0.60;;;;;;;9.05;61.28;96056.65;1750388;81;21160;-63
2020/12/29 05:00:37;;;;;;;0.40;0.40;;;;;;;9.24;60.51;96059.17;1750283;82;21121;-63
2020/12/29 05:03:05;;;;;;;1.35;0.78;;;;;;;9.32;60.83;96081.09;1750607;82;21428;-62
2020/12/29 05:05:33;;;;;;;0.50;0.50;;;;;;;9.33;61.57;96114.28;1750489;82;21231;-66
2020/12/29 05:08:03;;;;;;;0.50;0.50;;;;;;;9.33;62.78;96135.00;1750575;82;21148;-65
2020/12/29 05:10:31;;;;;;;1.47;0.70;;;;;;;9.31;62.72;96146.02;1750362;81;21575;-64
2020/12/29 05:12:59;;;;;;;2.15;0.50;;;;;;;9.30;62.96;96172.92;1750692;82;21218;-66
2020/12/29 05:15:27;;;;;;;3.35;0.80;;;;;;;9.29;63.86;96198.02;1750302;82;21232;-66
2020/12/29 05:17:55;;;;;;;2.45;0.78;;;;;;;9.30;64.25;96236.39;1750509;81;21220;-63
2020/12/29 05:20:33;;;;;;;1.95;0.80;;;;;;;9.30;64.87;96262.29;1723556;82;21584;-64
2020/12/29 05:22:54;;;;;;;2.08;0.75;;;;;;;9.30;66.57;96281.72;1749785;81;21702;-64
2020/12/29 05:25:24;;;;;;;1.35;0.68;;;;;;;9.21;68.51;96302.18;1750516;82;21525;-65
2020/12/29 05:27:51;;;;;;;0.60;0.60;;;;;;;9.03;70.10;96318.81;1750637;82;21191;-65
2020/12/29 05:30:19;;;;;;;0.93;0.42;;;;;;;8.92;71.11;96328.76;1750496;82;21152;-65
2020/12/29 05:32:47;;;;;;;0.50;0.50;;;;;;;8.75;71.98;96329.37;1750560;82;21144;-63
2020/12/29 05:35:16;;;;;;;0.62;0.37;;;;;;;8.54;74.35;96351.95;1750791;82;21121;-64
2020/12/29 05:37:44;;;;;;;1.62;0.57;;;;;;;8.37;74.97;96353.47;1750679;81;21287;-64
2020/12/29 05:40:27;;;;;;;1.85;0.60;;;;;;;8.26;75.75;96346.05;1750478;82;21152;-64
2020/12/29 05:42:57;;;;;;;1.00;0.57;;;;;;;8.16;75.95;96361.77;1750483;82;21168;-63
2020/12/29 05:45:28;;;;;;;0.70;0.60;;;;;;;8.04;77.80;96353.56;1750539;81;21207;-63
2020/12/29 05:47:58;;;;;;;0.68;0.68;;;;;;;7.97;77.37;96333.72;1750156;81;21184;-64
2020/12/29 05:50:27;;;;;;;0.65;0.65;;;;;;;7.89;77.83;96291.90;1750476;81;21171;-63
2020/12/29 05:53:04;;;;;;;1.07;0.85;;;;;;;7.81;78.28;96273.02;1750617;81;21212;-63
2020/12/29 05:55:34;;;;;;;0.28;0.28;;;;;;;7.64;78.35;96252.88;1750425;82;21216;-64
2020/12/29 05:58:08;;;;;;;0.30;0.25;;;;;;;7.68;77.59;96267.08;1755106;81;21148;-63
2020/12/29 06:00:39;;;;;;;0.40;0.30;;;;;;;7.65;77.50;96286.80;1755679;81;21621;-63
2020/12/29 06:03:09;;;;;;;0.13;0.13;;;;;;;7.62;76.91;96296.17;1755808;82;21176;-65
2020/12/29 06:05:39;;;;;;;0.55;0.23;;;;;;;7.60;75.21;96300.67;1756231;82;21188;-64
2020/12/29 06:08:08;;;;;;;0.20;0.20;;;;;;;7.60;75.11;96324.73;1755752;81;21183;-63
2020/12/29 06:10:37;;;;;;;0.20;0.20;;;;;;;7.62;74.76;96331.85;1755907;81;21195;-62
2020/12/29 06:13:06;;;;;;;0.40;0.30;;;;;;;7.66;73.51;96334.91;1755952;81;21174;-63
2020/12/29 06:15:38;;;;;;;0.40;0.40;;;;;;;7.68;74.50;96346.36;1755781;82;21200;-65
2020/12/29 06:18:09;;;;;;;0.82;0.30;;;;;;;7.68;74.52;96344.59;1755863;81;21155;-62
2020/12/29 06:20:53;;;;;;;2.60;0.40;;;;;;;7.72;73.43;96330.38;1756010;82;21643;-63
2020/12/29 06:23:23;;;;;;;0.50;0.50;;;;;;;7.73;73.79;96320.84;1755256;80;21172;-64
2020/12/29 06:25:52;;;;;;;0.50;0.37;;;;;;;7.71;73.83;96308.56;1756072;81;21160;-65
2020/12/29 06:28:25;;;;;;;0.65;0.20;;;;;;;7.68;73.14;96319.23;1756093;82;21147;-63
2020/12/29 06:30:56;;;;;;;0.60;0.37;;;;;;;7.65;72.94;96337.17;1755797;81;21501;-65
2020/12/29 06:33:24;;;;;;;3.90;1.55;;;;;;;7.62;73.23;96366.73;1756050;82;21163;-64
2020/12/29 06:35:54;;;;;;;6.55;1.30;;;;;;;7.56;73.31;96357.03;1755683;81;21152;-63
2020/12/29 06:38:26;;;;;;;0.30;0.30;;;;;;;7.53;72.25;96350.91;1755890;81;21191;-65
2020/12/29 06:40:55;;;;;;;0.72;0.35;;;;;;;7.52;72.72;96343.31;1755866;81;21163;-64
2020/12/29 06:43:25;;;;;;;1.00;0.30;;;;;;;7.45;73.05;96343.64;1751470;80;21587;-64
2020/12/29 06:49:22;;;;;;;3.37;1.45;;;;;;;7.38;73.78;96356.41;1787463;79;23152;-64
2020/12/29 06:52:15;;;;;;;1.25;0.60;;;;;;;7.30;74.15;96361.56;1766062;80;21171;-64
2020/12/29 06:54:49;;;;;;;0.47;0.45;;;;;;;7.26;74.54;96377.53;1770047;80;21199;-64
2020/12/29 06:57:31;;;;;;;0.50;0.45;;;;;;;7.22;74.22;96368.49;1761404;81;21144;-64
2020/12/29 07:03:20;;;;;;;0.30;0.30;;;;;;;7.14;74.58;96361.55;1771231;80;21215;-64
2020/12/29 07:05:48;;;;;;;0.53;0.30;;;;;;;7.11;74.50;96389.80;1784865;80;21119;-66
2020/12/29 07:08:23;;;;;;;1.17;1.07;;;;;;;7.08;74.95;96396.55;1787196;79;21606;-65
2020/12/29 07:10:51;;;;;;;2.22;1.77;;;;;;;7.05;76.32;96399.45;1757842;80;21144;-65
2020/12/29 07:13:22;;;;;;;1.85;1.70;;;;;;;7.00;76.72;96389.30;1790245;80;21143;-65
2020/12/29 07:15:54;;;;;;;1.52;1.20;;;;;;;6.96;76.78;96396.55;1761798;80;21616;-66
2020/12/29 07:18:27;;;;;;;2.08;1.10;;;;;;;6.95;76.69;96404.43;1789863;80;21729;-64
2020/12/29 07:20:58;;;;;;;1.62;1.20;;;;;;;6.94;76.06;96415.71;1790131;80;21313;-63
2020/12/29 07:23:29;;;;;;;1.55;1.17;;;;;;;6.90;76.13;96408.77;1789928;79;21712;-64
2020/12/29 07:29:20;;;;;;;2.98;1.75;;;;;;;6.87;76.55;96419.41;1733598;82;21231;-62
2020/12/29 07:31:49;;;;;;;3.25;2.40;;;;;;;6.83;78.24;96412.95;1734076;82;21181;-63
2020/12/29 07:34:17;;;;;;;4.45;2.77;;;;;;;6.81;78.15;96421.31;1733961;82;21236;-65
2020/12/29 07:36:49;;;;;;;3.00;2.02;;;;;;;6.78;79.05;96429.85;1726271;82;21194;-64
2020/12/29 07:39:18;;;;;;;2.22;1.67;;;;;;;6.76;78.51;96428.73;1736569;82;21707;-66
2020/12/29 07:41:46;;;;;;;2.70;1.62;;;;;;;6.76;78.54;96433.89;1726363;82;21324;-64
2020/12/29 07:44:14;;;;;;;2.42;1.55;;;;;;;6.77;77.97;96452.26;1734347;82;21177;-64
2020/12/29 07:46:42;;;;;;;10.23;3.80;;;;;;;6.77;77.54;96447.09;1734077;82;21172;-64
2020/12/29 07:49:10;;;;;;;3.80;2.20;;;;;;;6.78;77.74;96442.27;1733934;82;21169;-64
2020/12/29 07:52:09;;;;;;;2.65;2.00;;;;;;;6.80;78.58;96451.16;1737308;82;21569;-64
2020/12/29 07:54:37;;;;;;;4.92;2.37;;;;;;;6.77;78.28;96427.75;1704974;84;21156;-64
2020/12/29 07:57:05;;;;;;;7.72;3.25;;;;;;;6.68;79.87;96435.16;1704989;84;21260;-67
2020/12/29 07:59:33;;;;;;;20.72;10.30;;;;;;;6.67;80.24;96433.05;1704538;84;21216;-67
2020/12/29 08:02:01;;;;;;;7.47;4.75;;;;;;;6.68;79.91;96440.31;1704540;83;21303;-64
2020/12/29 08:04:33;;;;;;;6.67;3.33;;;;;;;6.65;81.05;96455.59;1702668;82;21145;-63
2020/12/29 08:07:09;;;;;;;5.35;2.05;;;;;;;6.66;80.49;96444.80;1696377;84;21224;-64
2020/12/29 08:09:49;;;;;;;3.27;1.87;;;;;;;6.68;79.68;96462.24;1697020;83;21172;-64
2020/12/29 08:12:17;;;;;;;6.80;1.47;;;;;;;6.76;79.75;96451.95;1704623;82;21366;-63
2020/12/29 08:14:45;;;;;;;1.87;1.42;;;;;;;6.87;79.59;96454.25;1672913;84;21304;-66
2020/12/29 08:17:13;;;;;;;2.15;1.40;;;;;;;6.94;78.88;96442.81;1704764;82;21323;-66
2020/12/29 08:19:41;;;;;;;2.37;1.32;;;;;;;7.03;76.74;96445.75;1673023;84;21162;-66
2020/12/29 08:22:11;;;;;;;2.52;1.50;;;;;;;7.15;77.46;96429.00;1704444;82;21176;-67
2020/12/29 08:24:41;;;;;;;1.70;1.17;;;;;;;7.23;76.51;96448.86;1704660;82;21318;-66
2020/12/29 08:27:20;;;;;;;2.37;1.10;;;;;;;7.37;75.95;96439.19;1733139;81;21132;-66
2020/12/29 08:29:48;;;;;;;3.30;2.40;;;;;;;7.49;76.21;96436.63;1735803;83;21191;-68
2020/12/29 08:32:21;;;;;;;5.50;2.60;;;;;;;7.50;75.92;96452.45;1735855;83;21203;-67
2020/12/29 08:34:50;;;;;;;5.85;3.72;;;;;;;7.59;76.41;96459.22;1708363;83;21169;-68
2020/12/29 08:37:23;;;;;;;5.25;3.17;;;;;;;7.70;76.44;96469.75;1705077;83;21160;-68
2020/12/29 08:40:16;;;;;;;3.90;2.67;;;;;;;7.91;76.60;96484.27;1705248;83;21156;-68
2020/12/29 08:42:49;;;;;;;7.00;3.92;;;;;;;8.09;74.35;96481.05;1704199;82;21522;-68
2020/12/29 08:45:24;;;;;;;9.40;3.95;;;;;;;8.21;73.98;96484.11;1704910;84;21145;-65
2020/12/29 08:47:57;;;;;;;5.55;2.60;;;;;;;8.46;74.43;96486.50;1705631;83;21181;-67
2020/12/29 08:50:29;;;;;;;7.12;2.83;;;;;;;8.88;74.06;96471.97;1717755;82;21166;-66
2020/12/29 08:53:07;;;;;;;2.47;1.60;;;;;;;9.29;70.92;96492.50;1715957;83;21168;-66
2020/12/29 08:55:39;;;;;;;1.87;1.57;;;;;;;9.69;67.21;96496.13;1697619;84;21209;-66
2020/12/29 08:58:06;;;;;;;1.67;1.40;;;;;;;10.10;68.42;96504.42;1697568;83;21154;-65
2020/12/29 09:00:40;;;;;;;2.83;1.87;;;;;;;10.46;62.97;96505.43;1697722;84;21172;-67
2020/12/29 09:03:20;;;;;;;12.43;6.03;;;;;;;11.02;65.65;96504.48;1697035;83;21126;-69
2020/12/29 09:05:54;;;;;;;3.98;1.92;;;;;;;11.42;66.56;96516.16;1697765;83;21142;-70
2020/12/29 09:08:30;;;;;;;4.10;2.00;;;;;;;11.61;60.64;96511.67;1697484;84;21196;-71
2020/12/29 09:11:12;;;;;;;;;;;;;;;11.62;60.51;96513.29;1700083;83;21188;-72
2020/12/29 09:14:03;;;;;;;2.35;1.52;;;;;;;11.84;59.98;96507.14;1703395;84;20170;-72
2020/12/29 09:17:07;;;;;;;1.65;1.17;;;;;;;12.56;60.17;96503.03;1851196;76;23066;-71
2020/12/29 09:19:35;;;;;;;3.15;2.10;;;;;;;12.56;59.34;96501.73;1807577;78;21139;-69
2020/12/29 09:22:10;;;;;;;5.17;2.92;;;;;;;13.14;57.54;96512.70;1800283;78;21448;-71
2020/12/29 09:24:42;;;;;;;2.75;1.95;;;;;;;13.13;56.57;96514.50;1800431;78;21501;-73
2020/12/29 09:27:10;;;;;;;2.85;1.32;;;;;;;13.99;56.95;96493.88;1797818;78;21131;-69
2020/12/29 09:29:38;;;;;;;2.98;1.70;;;;;;;14.73;55.29;96480.92;1800250;78;21568;-70
2020/12/29 09:32:06;;;;;;;2.75;1.40;;;;;;;15.28;50.74;96490.51;1808945;77;21157;-71
2020/12/29 09:34:36;;;;;;;5.10;1.80;;;;;;;15.50;48.62;96505.42;1822185;77;21191;-69
2020/12/29 09:37:10;;;;;;;5.60;1.80;;;;;;;14.82;49.83;96519.91;1821676;77;21148;-70
2020/12/29 09:39:40;;;;;;;2.17;1.37;;;;;;;15.07;48.74;96516.42;1835735;76;21148;-70
2020/12/29 09:42:08;;;;;;;2.83;1.50;;;;;;;14.92;49.89;96521.58;1842839;77;21643;-70
2020/12/29 09:44:37;;;;;;;2.60;1.40;;;;;;;14.76;48.39;96523.31;1834467;77;21605;-70
2020/12/29 09:47:05;;;;;;;5.60;2.40;;;;;;;15.40;47.46;96522.05;1829700;77;21195;-70
2020/12/29 09:49:34;;;;;;;7.10;3.00;;;;;;;14.56;50.57;96533.29;1833298;77;21145;-71
2020/12/29 09:52:03;;;;;;;3.75;1.70;;;;;;;15.55;49.19;96529.16;1766138;81;21144;-70
2020/12/29 09:54:32;;;;;;;1.20;0.85;;;;;;;15.74;47.46;96540.03;1762761;80;21293;-70
2020/12/29 09:57:01;;;;;;;0.95;0.72;;;;;;;15.68;45.39;96544.00;1765858;80;21199;-70
2020/12/29 09:59:30;;;;;;;0.70;0.70;;;;;;;15.89;44.17;96538.44;1774944;80;21240;-71
2020/12/29 10:01:59;;;;;;;1.42;1.10;;;;;;;15.36;44.83;96541.28;1771036;79;21179;-70
2020/12/29 10:04:27;;;;;;;7.33;3.50;;;;;;;14.82;45.23;96544.73;1756083;80;21160;-70
2020/12/29 10:06:55;;;;;;;1.02;0.98;;;;;;;15.15;45.07;96546.77;1773229;80;21196;-70
2020/12/29 10:09:24;;;;;;;0.30;0.30;;;;;;;15.13;44.76;96546.18;1771291;80;21165;-69
2020/12/29 10:11:52;;;;;;;0.70;0.50;;;;;;;14.72;44.09;96555.59;1774961;79;21167;-70
2020/12/29 10:14:22;;;;;;;0.60;0.60;;;;;;;14.13;46.33;96556.84;1770814;80;21173;-70
2020/12/29 10:16:51;;;;;;;0.68;0.62;;;;;;;14.37;46.08;96560.21;1763641;80;21109;-69
2020/12/29 10:19:19;;;;;;;1.42;0.75;;;;;;;13.94;46.66;96566.24;1757478;81;21169;-69
2020/12/29 10:21:52;;;;;;;1.45;0.70;;;;;;;13.58;47.22;96578.27;1759933;81;21183;-69
2020/12/29 10:24:22;;;;;;;4.58;0.57;;;;;;;13.37;47.50;96579.69;1755542;81;21191;-69
2020/12/29 10:29:33;;;;;;;0.42;0.42;;;;;;;12.92;48.89;96577.61;1778034;80;21139;-68
2020/12/29 10:32:02;;;;;;;1.17;0.42;;;;;;;12.46;49.80;96579.84;1782374;79;21144;-68
2020/12/29 10:34:31;;;;;;;1.62;0.40;;;;;;;12.48;49.71;96572.66;1783571;80;21225;-69
2020/12/29 10:36:59;;;;;;;0.80;0.50;;;;;;;12.34;50.30;96567.34;1775458;80;21192;-69
2020/12/29 10:39:28;;;;;;;0.53;0.50;;;;;;;12.31;50.50;96574.23;1776405;80;21721;-69
2020/12/29 10:41:57;;;;;;;2.12;1.02;;;;;;;12.29;49.87;96572.81;1760521;81;21151;-69
2020/12/29 10:44:27;;;;;;;0.98;0.78;;;;;;;12.36;51.47;96580.17;1743123;81;21231;-69
2020/12/29 10:46:57;;;;;;;0.93;0.70;;;;;;;12.60;49.89;96581.58;1766189;81;21144;-69
2020/12/29 10:49:25;;;;;;;1.05;0.70;;;;;;;13.26;48.16;96588.06;1739878;82;21167;-69
2020/12/29 10:51:52;;;;;;;1.10;0.90;;;;;;;13.59;48.88;96590.31;1769013;81;21191;-69
2020/12/29 10:54:22;;;;;;;1.30;0.75;;;;;;;13.37;49.96;96600.55;1739444;82;21228;-67
2020/12/29 10:56:50;;;;;;;1.80;0.85;;;;;;;13.48;51.45;96609.13;1769725;81;21188;-67
2020/12/29 10:59:18;;;;;;;3.35;0.90;;;;;;;14.10;50.31;96606.34;1741338;81;21615;-68
2020/12/29 11:01:46;;;;;;;0.72;0.45;;;;;;;15.04;47.87;96610.14;1741430;81;21570;-70
2020/12/29 11:04:15;;;;;;;7.90;1.15;;;;;;;14.66;47.25;96616.50;1741609;81;21171;-70
2020/12/29 11:06:44;;;;;;;2.10;1.25;;;;;;;15.03;46.59;96618.98;1741676;81;21163;-69
2020/12/29 11:09:12;;;;;;;1.45;1.10;;;;;;;15.36;46.48;96618.44;1741661;81;21465;-67
2020/12/29 11:11:40;;;;;;;5.72;2.40;;;;;;;15.94;45.07;96614.54;1741506;81;21219;-69
2020/12/29 11:14:08;;;;;;;2.02;1.10;;;;;;;16.84;43.22;96608.14;1741384;81;21155;-69
2020/12/29 11:16:36;;;;;;;4.30;1.10;;;;;;;17.46;41.61;96610.57;1741407;81;21163;-70
2020/12/29 11:19:04;;;;;;;4.22;1.20;;;;;;;17.98;39.87;96613.09;1741288;81;21167;-70
2020/12/29 11:21:33;;;;;;;4.37;3.00;;;;;;;17.48;40.85;96615.58;1741576;81;21132;-69
2020/12/29 11:24:02;;;;;;;2.67;1.37;;;;;;;17.24;40.74;96616.44;1741485;81;21654;-70
2020/12/29 11:26:30;;;;;;;2.95;1.47;;;;;;;17.63;39.31;96623.92;1741440;81;21179;-69
2020/12/29 11:28:58;;;;;;;1.40;0.90;;;;;;;18.26;37.89;96628.30;1739825;81;21158;-70
2020/12/29 11:31:27;;;;;;;3.47;1.20;;;;;;;19.67;36.98;96630.09;1739243;81;21576;-67
2020/12/29 11:33:55;;;;;;;2.52;0.75;;;;;;;19.41;36.33;96641.36;1739035;81;21581;-72
2020/12/29 11:36:23;;;;;;;2.42;0.90;;;;;;;20.14;36.10;96643.44;1738969;81;21640;-69
2020/12/29 11:38:51;;;;;;;1.37;0.82;;;;;;;20.46;35.18;96641.16;1738957;81;21175;-71
2020/12/29 11:41:19;;;;;;;5.25;1.32;;;;;;;21.24;33.53;96637.17;1739099;81;21281;-68
2020/12/29 11:43:47;;;;;;;2.45;1.12;;;;;;;20.39;34.61;96645.75;1738860;81;21212;-68
2020/12/29 11:46:16;;;;;;;1.80;0.95;;;;;;;20.14;34.44;96652.66;1739248;81;21698;-68
2020/12/29 11:48:44;;;;;;;2.72;1.10;;;;;;;21.15;32.80;96651.84;1738952;81;21546;-69
2020/12/29 11:51:12;;;;;;;1.42;0.80;;;;;;;20.66;33.36;96651.27;1739115;81;21342;-67
2020/12/29 11:53:40;;;;;;;2.90;1.50;;;;;;;21.46;32.60;96654.92;1739119;81;21176;-70
2020/12/29 11:56:11;;;;;;;3.12;0.93;;;;;;;21.70;31.25;96651.03;1739105;81;21158;-70
2020/12/29 11:58:39;;;;;;;2.90;1.20;;;;;;;20.31;33.16;96663.30;1739036;81;21234;-70
2020/12/29 12:01:07;;;;;;;2.90;1.65;;;;;;;19.64;33.80;96664.29;1738905;81;21609;-68
2020/12/29 12:03:35;;;;;;;1.10;0.80;;;;;;;20.84;32.66;96666.88;1739040;81;21301;-68
2020/12/29 12:06:03;;;;;;;1.87;1.02;;;;;;;21.17;30.36;96669.54;1739155;81;21702;-68
2020/12/29 12:08:31;;;;;;;1.30;0.80;;;;;;;19.98;32.21;96670.52;1738462;82;21161;-68
2020/12/29 12:10:59;;;;;;;3.67;0.93;;;;;;;21.48;29.69;96666.02;1739153;81;21289;-68